.
WxDataArchive / Data Records for 2016-04-03
2016-04-02 April 2016 2016-04-04

Data Records for Sunday, 03 April 2016

Time	Temp	Chill	HIndex	Humid	Dewpt	 Wind 	HiWind	WindDir	Rain 	Barom
-----	----	-----	------	-----	-----	------	------	-------	-----	-----
00:00	28.8	28.8	28.8	76	22.2	3	6	292	0.00	29.952 
00:05	28.8	28.8	28.8	76	22.2	2	6	292	0.00	29.952 
00:10	28.8	28.8	28.8	77	22.5	1	4	292	0.00	29.952 
00:15	29.0	29.0	29.0	78	23.0	2	5	292	0.00	29.960 
00:20	28.8	28.8	28.8	78	22.8	2	6	270	0.00	29.960 
00:25	28.8	28.8	28.8	78	22.8	3	7	270	0.00	29.960 
00:30	28.7	28.7	28.7	78	22.7	3	10	292	0.00	29.966 
00:35	28.5	28.5	28.5	78	22.5	2	7	292	0.00	29.966 
00:40	28.5	28.5	28.5	78	22.5	1	5	292	0.00	29.966 
00:45	28.5	28.5	28.5	79	22.8	1	6	292	0.00	29.975 
00:50	28.4	28.4	28.4	79	22.7	1	9	292	0.00	29.975 
00:55	28.2	28.2	28.2	79	22.5	1	4	292	0.00	29.975 
01:00	28.2	28.2	28.2	79	22.5	1	4	292	0.00	29.979 
01:05	28.1	28.1	28.1	79	22.4	1	4	292	0.00	29.979 
01:10	28.1	28.1	28.1	78	22.1	1	6	292	0.00	29.979 
01:15	27.9	27.9	27.9	78	21.9	1	4	292	0.00	29.989 
01:20	27.9	27.9	27.9	77	21.6	1	6	292	0.00	29.989 
01:25	27.9	27.9	27.9	77	21.6	1	6	292	0.00	29.989 
01:30	27.8	27.8	27.8	76	21.2	1	5	292	0.00	29.990 
01:35	27.8	27.8	27.8	76	21.2	1	5	292	0.00	29.990 
01:40	27.6	27.6	27.6	76	21.0	1	5	292	0.00	29.990 
01:45	27.6	27.6	27.6	76	21.0	1	4	292	0.00	29.998 
01:50	27.6	27.6	27.6	76	21.0	0	3	292	0.00	29.998 
01:55	27.8	27.8	27.8	76	21.2	1	5	292	0.00	29.998 
02:00	27.8	27.8	27.8	77	21.5	1	3	292	0.00	30.005 
02:05	27.8	27.8	27.8	77	21.5	0	2	292	0.00	30.005 
02:10	27.6	27.6	27.6	77	21.4	0	2	270	0.00	30.005 
02:15	27.5	27.5	27.5	77	21.3	0	3	292	0.00	30.006 
02:20	27.2	27.2	27.2	78	21.3	0	2	292	0.00	30.006 
02:25	27.2	27.2	27.2	78	21.3	0	3	292	0.00	30.006 
02:30	27.0	27.0	27.0	79	21.4	1	3	292	0.00	30.004 
02:35	26.9	26.9	26.9	79	21.3	0	1	292	0.00	30.004 
02:40	26.9	26.9	26.9	79	21.3	0	3	292	0.00	30.004 
02:45	26.7	26.7	26.7	80	21.4	0	1	292	0.00	30.008 
02:50	26.6	26.6	26.6	80	21.3	0	1	292	0.00	30.008 
02:55	26.4	26.4	26.4	81	21.4	0	1	292	0.00	30.008 
03:00	26.4	26.4	26.4	81	21.4	0	0	---	0.00	30.011 
03:05	26.3	26.3	26.3	81	21.3	0	0	---	0.00	30.011 
03:10	26.1	26.1	26.1	81	21.1	0	1	292	0.00	30.011 
03:15	26.0	26.0	26.0	81	21.0	0	0	---	0.00	30.007 
03:20	26.0	26.0	26.0	82	21.3	0	1	292	0.00	30.007 
03:25	25.8	25.8	25.8	82	21.1	0	1	292	0.00	30.007 
03:30	25.7	25.7	25.7	82	21.0	0	0	---	0.00	30.008 
03:35	25.7	25.7	25.7	83	21.3	0	0	---	0.00	30.008 
03:40	25.6	25.6	25.6	83	21.2	0	0	---	0.00	30.008 
03:45	25.6	25.6	25.6	83	21.2	0	0	---	0.00	30.006 
03:50	25.6	25.6	25.6	83	21.2	0	0	---	0.00	30.006 
03:55	25.4	25.4	25.4	83	21.0	0	0	---	0.00	30.006 
04:00	25.4	25.4	25.4	83	21.0	0	1	292	0.00	30.010 
04:05	25.3	25.3	25.3	84	21.2	0	0	---	0.00	30.010 
04:10	25.3	25.3	25.3	84	21.2	0	0	---	0.00	30.010 
04:15	25.1	25.1	25.1	84	21.0	0	0	---	0.00	30.011 
04:20	25.1	25.1	25.1	84	21.0	0	0	---	0.00	30.011 
04:25	25.0	25.0	25.0	84	20.9	0	0	---	0.00	30.011 
04:30	24.8	24.8	24.8	84	20.7	0	0	---	0.00	30.011 
04:35	24.8	24.8	24.8	84	20.7	0	0	---	0.00	30.011 
04:40	24.7	24.7	24.7	84	20.6	0	0	---	0.00	30.011 
04:45	24.5	24.5	24.5	84	20.4	0	0	---	0.00	30.016 
04:50	24.5	24.5	24.5	84	20.4	0	0	---	0.00	30.016 
04:55	24.5	24.5	24.5	84	20.4	0	0	---	0.00	30.016 
05:00	24.4	24.4	24.4	84	20.3	0	0	---	0.00	30.024 
05:05	24.4	24.4	24.4	85	20.6	0	0	---	0.00	30.024 
05:10	24.2	24.2	24.2	85	20.4	0	0	---	0.00	30.024 
05:15	24.2	24.2	24.2	85	20.4	0	0	---	0.00	30.029 
05:20	24.1	24.1	24.1	85	20.3	0	0	---	0.00	30.029 
05:25	23.9	23.9	23.9	85	20.1	0	0	---	0.00	30.029 
05:30	24.1	24.1	24.1	85	20.3	0	0	---	0.00	30.040 
05:35	23.9	23.9	23.9	85	20.1	0	0	---	0.00	30.040 
05:40	23.9	23.9	23.9	85	20.1	0	0	---	0.00	30.040 
05:45	23.8	23.8	23.8	85	20.0	0	0	---	0.00	30.040 
05:50	23.6	23.6	23.6	85	19.8	0	0	---	0.00	30.040 
05:55	23.5	23.5	23.5	85	19.7	0	0	---	0.00	30.040 
06:00	23.3	23.3	23.3	85	19.5	0	0	---	0.00	30.044 
06:05	23.2	23.2	23.2	86	19.6	0	0	---	0.00	30.044 
06:10	23.2	23.2	23.2	86	19.6	0	0	---	0.00	30.044 
06:15	23.0	23.0	23.0	86	19.4	0	0	---	0.00	30.046 
06:20	23.2	23.2	23.2	86	19.6	0	0	---	0.00	30.046 
06:25	23.5	23.5	23.5	87	20.2	0	0	---	0.00	30.046 
06:30	23.9	23.9	23.9	87	20.6	0	1	292	0.00	30.046 
06:35	24.4	24.4	24.4	87	21.1	0	0	---	0.00	30.046 
06:40	24.7	24.7	24.7	86	21.1	0	1	292	0.00	30.046 
06:45	25.1	25.1	25.1	85	21.2	0	1	292	0.00	30.046 
06:50	25.4	25.4	25.4	84	21.3	0	0	---	0.00	30.046 
06:55	25.7	25.7	25.7	84	21.5	0	0	---	0.00	30.046 
07:00	25.8	25.8	25.8	82	21.1	0	0	---	0.00	30.046 
07:05	26.1	26.1	26.1	81	21.1	0	1	292	0.00	30.046 
07:10	26.4	26.4	26.4	80	21.1	0	0	---	0.00	30.046 
07:15	26.6	26.6	26.6	79	21.0	0	0	---	0.00	30.045 
07:20	26.7	26.7	26.7	79	21.1	0	0	---	0.00	30.045 
07:25	26.7	26.7	26.7	78	20.8	0	1	292	0.00	30.045 
07:30	26.9	26.9	26.9	78	21.0	0	1	292	0.00	30.043 
07:35	27.0	27.0	27.0	77	20.8	0	0	---	0.00	30.043 
07:40	27.0	27.0	27.0	77	20.8	0	0	---	0.00	30.043 
07:45	27.2	27.2	27.2	77	21.0	0	1	292	0.00	30.047 
07:50	27.2	27.2	27.2	76	20.7	0	0	---	0.00	30.047 
07:55	27.3	27.3	27.3	75	20.4	0	0	---	0.00	30.047 
08:00	27.5	27.5	27.5	75	20.6	0	0	---	0.00	30.062 
08:05	27.6	27.6	27.6	74	20.4	0	0	---	0.00	30.062 
08:10	27.8	27.8	27.8	74	20.6	0	0	---	0.00	30.062 
08:15	27.9	27.9	27.9	74	20.7	0	1	292	0.00	30.074 
08:20	28.1	28.1	28.1	73	20.6	0	0	---	0.00	30.074 
08:25	28.2	28.2	28.2	73	20.7	0	0	---	0.00	30.074 
08:30	28.4	28.4	28.4	73	20.9	0	0	---	0.00	30.075 
08:35	28.5	28.5	28.5	73	21.0	0	0	---	0.00	30.075 
08:40	28.8	28.8	28.8	72	20.9	0	1	292	0.00	30.075 
08:45	28.8	28.8	28.8	71	20.6	0	1	292	0.00	30.064 
08:50	29.0	29.0	29.0	71	20.8	0	0	---	0.00	30.064 
08:55	29.1	29.1	29.1	71	20.9	0	0	---	0.00	30.064 
09:00	29.3	29.3	29.3	70	20.8	0	1	292	0.00	30.075 
09:05	29.5	29.5	29.5	70	20.9	0	1	292	0.00	30.075 
09:10	29.8	29.8	29.8	69	20.9	0	1	292	0.00	30.075 
09:15	30.0	30.0	30.0	69	21.1	0	1	292	0.00	30.071 
09:20	30.1	30.1	30.1	68	20.8	0	1	292	0.00	30.071 
09:25	30.4	30.4	30.4	67	20.8	0	1	292	0.00	30.071 
09:30	30.6	30.6	30.6	66	20.6	0	2	292	0.00	30.073 
09:35	30.6	30.6	30.6	64	19.9	0	3	292	0.00	30.073 
09:40	30.7	30.7	30.7	64	20.0	0	2	292	0.00	30.073 
09:45	30.9	30.9	30.9	63	19.8	0	2	292	0.00	30.075 
09:50	31.3	31.3	31.3	63	20.2	0	3	292	0.00	30.075 
09:55	31.6	31.6	31.6	62	20.1	0	2	292	0.00	30.075 
10:00	32.1	32.1	32.1	61	20.2	0	2	292	0.00	30.073 
10:05	32.5	32.5	32.5	60	20.2	0	2	270	0.00	30.073 
10:10	32.8	32.8	32.8	58	19.7	1	3	270	0.00	30.073 
10:15	32.8	32.8	32.8	57	19.3	1	3	270	0.00	30.071 
10:20	32.8	32.8	32.8	57	19.3	1	3	270	0.00	30.071 
10:25	33.4	33.4	33.4	58	20.2	0	2	270	0.00	30.071 
10:30	34.3	34.3	34.3	59	21.5	1	2	270	0.00	30.064 
10:35	35.3	35.3	35.3	56	21.2	1	4	248	0.00	30.064 
10:40	35.6	35.6	35.6	52	19.7	1	4	248	0.00	30.064 
10:45	35.6	35.6	35.6	51	19.3	1	3	248	0.00	30.060 
10:50	35.3	35.3	35.3	50	18.5	1	3	248	0.00	30.060 
10:55	35.2	35.2	35.2	51	18.9	1	3	248	0.00	30.060 
11:00	35.5	35.5	35.5	50	18.7	1	4	248	0.00	30.067 
11:05	35.6	35.6	35.6	51	19.3	1	4	248	0.00	30.067 
11:10	35.9	35.9	35.9	51	19.6	1	4	248	0.00	30.067 
11:15	36.5	36.5	36.5	54	21.5	1	4	248	0.00	30.056 
11:20	36.5	36.5	36.5	49	19.2	1	5	270	0.00	30.056 
11:25	36.6	36.6	36.6	52	20.7	1	3	248	0.00	30.056 
11:30	37.0	37.0	37.0	54	21.9	1	4	248	0.00	30.055 
11:35	37.5	37.5	37.5	53	21.9	1	5	248	0.00	30.055 
11:40	37.8	37.8	37.8	52	21.8	1	4	248	0.00	30.055 
11:45	38.2	38.2	38.2	53	22.6	1	4	248	0.00	30.051 
11:50	38.2	38.2	38.2	51	21.7	2	6	248	0.00	30.051 
11:55	38.0	38.0	38.0	49	20.6	2	6	248	0.00	30.051 
12:00	38.0	38.0	38.0	50	21.0	2	5	248	0.00	30.040 
12:05	38.3	38.3	38.3	48	20.4	1	6	270	0.00	30.040 
12:10	38.9	38.9	38.9	50	21.9	1	7	90	0.00	30.040 
12:15	39.3	39.3	39.3	48	21.3	1	6	248	0.00	30.027 
12:20	39.2	39.2	39.2	48	21.2	1	5	315	0.00	30.027 
12:25	39.6	39.6	39.6	48	21.5	2	5	248	0.00	30.027 
12:30	39.6	39.6	39.6	47	21.0	1	5	248	0.00	30.015 
12:35	40.3	40.3	40.3	45	20.7	1	7	248	0.00	30.015 
12:40	40.2	40.2	40.2	45	20.6	1	4	248	0.00	30.015 
12:45	40.9	40.9	40.9	48	22.7	1	4	90	0.00	29.996 
12:50	41.8	41.8	41.8	47	23.1	2	7	22	0.00	29.996 
12:55	41.9	41.9	41.9	46	22.6	2	7	90	0.00	29.996 
13:00	41.9	41.9	41.9	46	22.6	2	6	248	0.00	29.993 
13:05	41.9	41.9	41.9	45	22.1	1	5	248	0.00	29.993 
13:10	41.8	41.8	41.8	45	22.0	2	5	248	0.00	29.993 
13:15	41.8	41.8	41.8	45	22.0	1	5	248	0.00	29.981 
13:20	42.3	42.3	42.3	50	25.0	1	5	248	0.00	29.981 
13:25	42.8	42.8	42.8	45	22.9	2	10	270	0.00	29.981 
13:30	42.9	42.9	42.9	45	23.0	2	6	270	0.00	29.968 
13:35	42.8	42.8	42.8	45	22.9	2	9	248	0.00	29.968 
13:40	43.1	43.1	43.1	49	25.3	1	9	248	0.00	29.968 
13:45	43.6	43.6	43.6	49	25.7	1	5	270	0.00	29.946 
13:50	43.9	43.9	43.9	50	26.5	1	5	248	0.00	29.946 
13:55	44.3	44.3	44.3	49	26.4	3	8	90	0.00	29.946 
14:00	44.5	44.5	44.5	49	26.5	3	11	270	0.00	29.922 
14:05	44.6	44.6	44.6	48	26.1	2	7	248	0.00	29.922 
14:10	45.1	45.1	45.1	50	27.6	2	6	248	0.00	29.922 
14:15	45.2	45.2	45.2	52	28.6	2	9	248	0.00	29.908 
14:20	45.7	45.7	45.7	50	28.1	2	6	248	0.00	29.908 
14:25	45.8	45.8	45.8	47	26.7	3	9	225	0.00	29.908 
14:30	45.8	45.8	45.8	50	28.2	1	5	248	0.00	29.897 
14:35	46.1	46.1	46.1	47	27.0	3	7	248	0.00	29.897 
14:40	46.2	46.2	46.2	52	29.6	2	8	90	0.00	29.897 
14:45	47.1	47.1	47.1	51	29.9	1	4	135	0.00	29.889 
14:50	47.6	47.6	47.6	51	30.4	3	7	112	0.00	29.889 
14:55	47.6	47.6	47.6	48	28.9	3	12	90	0.00	29.889 
15:00	47.9	47.9	47.9	48	29.2	2	6	248	0.00	29.875 
15:05	48.2	48.2	48.2	50	30.4	2	7	248	0.00	29.875 
15:10	48.6	48.6	48.6	51	31.3	2	7	248	0.00	29.875 
15:15	49.1	49.1	49.1	51	31.8	2	8	248	0.00	29.856 
15:20	49.4	49.4	49.4	48	30.5	3	7	248	0.00	29.856 
15:25	49.9	49.9	49.9	48	31.0	2	5	225	0.00	29.856 
15:30	50.5	50.5	50.5	48	31.5	2	7	90	0.00	29.839 
15:35	50.8	50.8	50.8	46	30.8	1	5	270	0.00	29.839 
15:40	51.1	51.1	51.1	45	30.5	2	7	248	0.00	29.839 
15:45	51.0	51.0	51.0	44	29.9	3	10	248	0.00	29.825 
15:50	51.1	51.1	51.1	48	32.1	2	5	270	0.00	29.825 
15:55	51.4	51.4	51.4	47	31.9	2	7	315	0.00	29.825 
16:00	51.6	51.6	51.6	46	31.5	3	14	248	0.00	29.809 
16:05	51.9	51.9	51.9	47	32.3	2	14	202	0.00	29.809 
16:10	51.7	51.7	51.7	46	31.6	3	10	248	0.00	29.809 
16:15	51.9	51.9	51.9	48	32.8	2	6	248	0.00	29.792 
16:20	52.0	52.0	52.0	47	32.4	2	9	248	0.00	29.792 
16:25	52.5	52.5	52.5	46	32.3	2	6	248	0.00	29.792 
16:30	52.9	52.9	52.9	46	32.7	2	7	248	0.00	29.785 
16:35	53.5	53.5	53.5	46	33.2	2	7	248	0.00	29.785 
16:40	53.8	53.8	53.8	45	33.0	2	6	248	0.00	29.785 
16:45	54.1	54.1	54.1	45	33.2	3	11	225	0.00	29.765 
16:50	54.5	54.5	54.5	46	34.1	2	10	248	0.00	29.765 
16:55	55.0	55.0	55.0	43	32.9	3	10	248	0.00	29.765 
17:00	55.4	55.4	55.4	42	32.7	2	6	248	0.00	29.752 
17:05	55.7	55.7	55.7	42	33.0	2	6	248	0.00	29.752 
17:10	55.7	55.7	55.7	42	33.0	3	13	248	0.00	29.752 
17:15	55.9	55.9	55.9	43	33.7	3	8	248	0.00	29.745 
17:20	55.9	55.9	55.9	42	33.1	3	12	248	0.00	29.745 
17:25	55.9	55.9	55.9	42	33.1	3	12	248	0.00	29.745 
17:30	55.9	55.9	55.9	42	33.1	4	10	248	0.00	29.738 
17:35	56.0	56.0	56.0	43	33.8	4	13	248	0.00	29.738 
17:40	56.2	56.2	56.2	43	34.0	2	9	248	0.00	29.738 
17:45	56.5	56.5	56.5	42	33.7	3	7	248	0.00	29.735 
17:50	56.7	56.7	56.7	43	34.5	2	6	248	0.00	29.735 
17:55	56.9	56.9	56.9	42	34.0	2	7	248	0.00	29.735 
18:00	57.0	57.0	57.0	43	34.7	2	7	270	0.00	29.722 
18:05	57.2	57.2	57.2	42	34.3	3	14	248	0.00	29.722 
18:10	57.6	57.6	57.6	40	33.5	4	10	248	0.00	29.722 
18:15	57.8	57.8	57.8	40	33.6	4	12	248	0.00	29.710 
18:20	58.0	58.0	58.0	40	33.8	4	12	248	0.00	29.710 
18:25	58.1	58.1	58.1	41	34.5	3	12	248	0.00	29.710 
18:30	58.3	58.3	58.3	41	34.7	3	11	248	0.00	29.703 
18:35	58.3	58.3	58.3	41	34.7	2	11	270	0.00	29.703 
18:40	58.1	58.1	58.1	41	34.5	2	6	248	0.00	29.703 
18:45	58.1	58.1	58.1	41	34.5	2	10	248	0.00	29.690 
18:50	58.1	58.1	58.1	43	35.7	2	7	248	0.00	29.690 
18:55	58.1	58.1	58.1	42	35.1	2	6	248	0.00	29.690 
19:00	58.3	58.3	58.3	42	35.3	3	12	248	0.00	29.673 
19:05	58.4	58.4	58.4	42	35.4	3	7	248	0.00	29.673 
19:10	58.3	58.3	58.3	42	35.3	3	7	248	0.00	29.673 
19:15	58.3	58.3	58.3	42	35.3	4	13	248	0.00	29.671 
19:20	58.3	58.3	58.3	43	35.9	2	10	248	0.00	29.671 
19:25	58.1	58.1	58.1	43	35.7	2	6	248	0.00	29.671 
19:30	58.0	58.0	58.0	43	35.6	2	10	248	0.00	29.659 
19:35	57.8	57.8	57.8	43	35.5	3	9	248	0.00	29.659 
19:40	57.6	57.6	57.6	44	35.8	2	6	248	0.00	29.659 
19:45	57.6	57.6	57.6	44	35.8	3	9	248	0.00	29.667 
19:50	57.6	57.6	57.6	44	35.8	2	8	248	0.00	29.667 
19:55	57.6	57.6	57.6	44	35.8	3	9	248	0.00	29.667 
20:00	57.5	57.5	57.5	44	35.8	2	9	270	0.00	29.668 
20:05	57.3	57.3	57.3	45	36.1	2	9	270	0.00	29.668 
20:10	57.2	57.2	57.2	45	36.1	2	6	248	0.00	29.668 
20:15	57.0	57.0	57.0	45	35.9	2	7	248	0.00	29.663 
20:20	57.0	57.0	57.0	45	35.9	2	6	248	0.00	29.663 
20:25	57.0	57.0	57.0	45	35.9	3	10	248	0.00	29.663 
20:30	57.2	57.2	57.2	45	36.1	2	7	248	0.00	29.666 
20:35	57.0	57.0	57.0	45	35.9	2	11	248	0.00	29.666 
20:40	56.9	56.9	56.9	46	36.3	2	6	248	0.00	29.666 
20:45	56.7	56.7	56.7	46	36.2	2	8	248	0.00	29.660 
20:50	56.6	56.6	56.6	46	36.1	2	5	270	0.00	29.660 
20:55	56.5	56.5	56.5	46	36.0	1	5	248	0.00	29.660 
21:00	56.5	56.5	56.5	46	36.0	2	8	248	0.00	29.656 
21:05	56.5	56.5	56.5	46	36.0	2	7	248	0.00	29.656 
21:10	56.3	56.3	56.3	47	36.3	2	5	248	0.00	29.656 
21:15	56.2	56.2	56.2	47	36.2	2	7	248	0.00	29.655 
21:20	56.2	56.2	56.2	47	36.2	2	9	248	0.00	29.655 
21:25	56.2	56.2	56.2	47	36.2	3	10	248	0.00	29.655 
21:30	56.2	56.2	56.2	47	36.2	2	6	248	0.00	29.653 
21:35	56.0	56.0	56.0	47	36.1	3	6	248	0.00	29.653 
21:40	56.0	56.0	56.0	47	36.1	3	7	248	0.00	29.653 
21:45	56.0	56.0	56.0	47	36.1	3	10	248	0.00	29.651 
21:50	56.0	56.0	56.0	47	36.1	3	11	248	0.00	29.651 
21:55	56.0	56.0	56.0	47	36.1	3	6	248	0.00	29.651 
22:00	56.0	56.0	56.0	47	36.1	3	10	248	0.00	29.646 
22:05	56.2	56.2	56.2	46	35.7	4	12	248	0.00	29.646 
22:10	56.3	56.3	56.3	46	35.8	3	9	248	0.00	29.646 
22:15	56.3	56.3	56.3	47	36.3	2	6	248	0.00	29.645 
22:20	56.3	56.3	56.3	46	35.8	4	10	248	0.00	29.645 
22:25	56.3	56.3	56.3	46	35.8	3	9	248	0.00	29.645 
22:30	56.5	56.5	56.5	46	36.0	3	9	248	0.00	29.652 
22:35	56.5	56.5	56.5	46	36.0	2	7	248	0.00	29.652 
22:40	56.5	56.5	56.5	46	36.0	2	6	248	0.00	29.652 
22:45	56.6	56.6	56.6	46	36.1	4	9	248	0.00	29.653 
22:50	56.7	56.7	56.7	46	36.2	4	9	248	0.00	29.653 
22:55	56.7	56.7	56.7	46	36.2	3	12	248	0.00	29.653 
23:00	56.7	56.7	56.7	46	36.2	3	11	248	0.00	29.651 
23:05	56.7	56.7	56.7	46	36.2	3	10	248	0.00	29.651 
23:10	56.7	56.7	56.7	46	36.2	3	11	248	0.00	29.651 
23:15	56.7	56.7	56.7	46	36.2	3	12	248	0.00	29.655 
23:20	56.9	56.9	56.9	46	36.3	3	9	248	0.00	29.655 
23:25	56.9	56.9	56.9	46	36.3	3	10	248	0.00	29.655 
23:30	56.9	56.9	56.9	46	36.3	4	15	248	0.00	29.651 
23:35	56.9	56.9	56.9	46	36.3	3	10	248	0.00	29.651 
23:40	56.7	56.7	56.7	46	36.2	2	6	248	0.00	29.651 
23:45	56.7	56.7	56.7	46	36.2	4	11	248	0.00	29.654 
23:50	56.9	56.9	56.9	46	36.3	4	11	248	0.00	29.654 
23:55	56.9	56.9	56.9	46	36.3	3	13	248	0.00	29.654 

CoCoRaHS
IN-AL-39
A2 Web Hosting
Creative Commons License
GoDaddy
search engine by freefind advanced

loaded 2018-11-20 06:53:03 • last modified 2010-11-18 10:43:29
Privacy PolicyDisclaimer
• wx.awcolley.com is powered by PmWiki v.2002016 •
• all content (unless otherwise noted) © 2018 A W Colley